Walker, Minnesota
Current Conditions -  °F | °C
As of 5:55 AM on Thursday 29 Jan 2015 (Local Time) from KY49 Reporting Station
Overcast Overcast  
Wind Chill:   Ceiling: 1100
Heat Index: 19°   Visibility: 10mi
Dew Point: 17°   Wind: 10mph
Humidity: 89%   Direction: 300°WNW
Pressure: 30.11"   Gusts: 22mph
Location:  47.1°N, 94.59°W
Report Text: KY49 291155Z AUTO 30009G19KT 270V340 10SM OVC011 M07/M08 A3011 RMK AO2 T10701085 11005 21070
Loading
Personal Weather Stations






























Interactive Weather Map New forecast layout! Learn more

10-Day Weather Forecast

Advertisements
Track Severe Weather on mobile